Aswan, Egypt

9:21 AM EET on August 29, 2015 (GMT +0200)
Aswan International | | Change Station
CLOSE
Current Station
Airport
Location: Aswan,
Elevation: 636 ft
Nearby Weather Stations

Elev 636 ft 23.96 °N, 32.82 °E | Updated 21 minutes ago

Clear
Clear
95 °F
Feels Like 93 °F
N
9
Wind Variable Wind from North

Today
High -- | Low -- °F
--% Chance of Precip.
Yesterday
High -- | Low -- °F
Precip. -- in
5:29 AM 6:10 PM
Full, 100% visible
Pressure 29.83 in
Visibility -9999.0 miles
Clouds
Heat Index 93 °F
Dew Point 54 °F
Humidity 25%
Rainfall 0.00 in
Snow Depth Not available.
UV Not available.
Pollen Not available.
Air Quality Not available.
Flu Activity Not available.
METAR HESN 290700Z 01008KT CAVOK 35/12 Q1010 NOSIG
Pressure 29.83 in
Visibility -9999.0 miles
Clouds
Heat Index 93 °F
Dew Point 54 °F
Humidity 25%
Rainfall 0.00 in
Snow Depth Not available.
UV Not available.
Pollen Not available.
Air Quality Not available.
Flu Activity Not available.
METAR HESN 290700Z 01008KT CAVOK 35/12 Q1010 NOSIG

10-Day Weather Forecast

×

Almanac

Astronomy

Aug. 29, 2015 Rise Set
Actual Time
Civil Twilight
Nautical Twilight
Astronomical Twilight
Moon
Length of Visible Light
Length of Day
Tomorrow will be .
, % of the Moon is Illuminated

Today's Extremes

Country Highs Country Lows

Community

WunderPhotos

Upload Photos

1,850,633 photos uploaded!

WunderBlogs® & News

Nearby

Air Quality

  Air Quality AQ Index Pollutant
Not available.

Snow Depth

Station Depth Elevation

Earthquake Activity

City Distance Mag. Time & Date
Minimum magnitude displayed is 2.5.

Coastal Water Temperatures

Place Temperature

Stations

Nearby Weather Stations

Station Location Temp. Windchill Dew Point Humidity Wind Precip. Elev Updated Type